Terminal Aerodrome Forecast
Issued by NWS

Home | Current Version | Previous Version | Text Only | Print | Product List | Glossary On
Versions: 1 2 3 4 5 6 7 8 9 10 11 12 13
000
FTUS45 KRIW 300500
TAFCPR
TAF
KCPR 300531Z 3006/3106 24007KT P6SM FEW200
     FM302000 28012G18KT P6SM FEW200
     FM310200 24006KT P6SM SKC=

USA.gov is the U.S. government's official web portal to all federal, state and local government web resources and services.